Time;durP1;ratioP1;P1;durP2;ratioP2;P2;SDS_P1;SDS_P2;PMS_P1;PMS_P2;Temp;Humidity;BMP_temperature;BMP_pressure;BME280_temperature;BME280_humidity;BME280_pressure;Samples;Min_cycle;Max_cycle;Signal;HPM_P1;HPM_P2
2021/07/14 00:02:01;;;;;;;15.80;13.00;;;;;;;23.59;100.00;99045.14;1706757;82;21429;-68
2021/07/14 00:04:33;;;;;;;21.40;15.43;;;;;;;23.58;100.00;99049.27;1714451;82;21446;-69
2021/07/14 00:07:04;;;;;;;33.65;16.82;;;;;;;23.55;100.00;99048.50;1721400;83;20947;-69
2021/07/14 00:09:35;;;;;;;28.85;16.27;;;;;;;23.54;100.00;99048.56;1721664;83;21438;-69
2021/07/14 00:12:09;;;;;;;19.15;13.22;;;;;;;23.50;100.00;99045.19;1721422;83;21398;-69
2021/07/14 00:17:44;;;;;;;13.48;10.90;;;;;;;23.47;100.00;99047.20;1717958;83;20981;-69
2021/07/14 00:22:53;;;;;;;12.58;11.33;;;;;;;23.46;100.00;99044.98;1721026;83;21406;-69
2021/07/14 00:25:23;;;;;;;16.05;11.90;;;;;;;23.44;100.00;99046.91;1720397;83;22000;-68
2021/07/14 00:27:52;;;;;;;19.37;11.70;;;;;;;23.41;100.00;99042.19;1720423;82;20886;-70
2021/07/14 00:30:24;;;;;;;16.12;11.90;;;;;;;23.37;100.00;99044.20;1719995;83;21454;-69
2021/07/14 00:32:52;;;;;;;16.85;11.57;;;;;;;23.33;100.00;99039.09;1719225;82;21016;-69
2021/07/14 00:35:21;;;;;;;14.73;11.12;;;;;;;23.30;100.00;99041.48;1721037;82;20977;-68
2021/07/14 00:37:50;;;;;;;17.92;11.83;;;;;;;23.28;100.00;99040.71;1720484;83;21056;-69
2021/07/14 00:40:18;;;;;;;14.40;12.35;;;;;;;23.26;100.00;99038.59;1720983;83;20900;-69
2021/07/14 00:42:47;;;;;;;14.90;12.90;;;;;;;23.22;100.00;99044.63;1720997;83;20919;-69
2021/07/14 00:45:17;;;;;;;22.17;14.65;;;;;;;23.20;100.00;99053.28;1720225;83;20909;-70
2021/07/14 00:47:49;;;;;;;17.77;13.28;;;;;;;23.19;100.00;99053.38;1720705;83;20893;-69
2021/07/14 00:50:16;;;;;;;18.05;11.85;;;;;;;23.16;100.00;99050.34;1720951;82;21081;-69
2021/07/14 00:52:44;;;;;;;17.62;11.70;;;;;;;23.14;100.00;99045.53;1721080;82;21463;-68
2021/07/14 00:55:14;;;;;;;14.87;11.45;;;;;;;23.13;100.00;99044.28;1717327;83;20950;-68
2021/07/14 00:57:42;;;;;;;17.20;12.13;;;;;;;23.12;100.00;99042.55;1720730;82;20961;-69
2021/07/14 01:00:12;;;;;;;18.27;12.03;;;;;;;23.05;100.00;99038.01;1721512;83;20913;-69
2021/07/14 01:02:40;;;;;;;21.75;12.55;;;;;;;23.02;100.00;99039.53;1718403;83;21920;-69
2021/07/14 01:05:20;;;;;;;18.82;12.88;;;;;;;22.98;100.00;99038.45;1705649;82;21436;-69
2021/07/14 01:08:10;;;;;;;20.95;12.98;;;;;;;22.93;100.00;99038.25;1695671;82;20966;-69
2021/07/14 01:10:50;;;;;;;19.70;11.93;;;;;;;22.92;100.00;99039.69;1708285;82;21470;-68
2021/07/14 01:13:42;;;;;;;18.25;12.18;;;;;;;22.92;100.00;99041.03;1706446;82;21460;-69
2021/07/14 01:16:17;;;;;;;19.85;13.08;;;;;;;22.88;100.00;99037.65;1706984;82;23546;-69
2021/07/14 01:18:58;;;;;;;19.82;12.73;;;;;;;22.87;100.00;99036.39;1710612;82;20960;-69
2021/07/14 01:21:34;;;;;;;22.65;12.58;;;;;;;22.84;100.00;99037.92;1705722;82;20893;-68
2021/07/14 01:24:14;;;;;;;23.10;13.25;;;;;;;22.81;100.00;99038.09;1713155;82;21479;-68
2021/07/14 01:27:13;;;;;;;15.50;12.37;;;;;;;22.78;100.00;99040.45;1713029;83;21457;-69
2021/07/14 01:29:51;;;;;;;22.05;11.95;;;;;;;22.75;100.00;99041.97;1711111;82;21093;-69
2021/07/14 01:32:23;;;;;;;14.73;12.53;;;;;;;22.74;100.00;99041.58;1717638;82;21472;-68
2021/07/14 01:34:58;;;;;;;17.62;12.23;;;;;;;22.73;100.00;99047.05;1714014;83;20870;-68
2021/07/14 01:37:28;;;;;;;16.35;13.22;;;;;;;22.70;100.00;99042.68;1711371;82;21477;-68
2021/07/14 01:39:57;;;;;;;27.35;13.55;;;;;;;22.68;100.00;99047.75;1712769;82;21009;-68
2021/07/14 01:42:27;;;;;;;27.98;12.68;;;;;;;22.66;100.00;99043.81;1691653;83;21720;-68
2021/07/14 01:45:00;;;;;;;21.65;14.18;;;;;;;22.65;100.00;99043.90;1712533;82;21448;-68
2021/07/14 01:47:29;;;;;;;25.17;13.05;;;;;;;22.66;100.00;99044.29;1713232;82;21495;-69
2021/07/14 01:49:59;;;;;;;62.35;14.70;;;;;;;22.66;100.00;99046.98;1708921;82;20963;-68
2021/07/14 01:52:29;;;;;;;31.82;14.78;;;;;;;22.66;100.00;99056.39;1711680;82;21593;-68
2021/07/14 01:55:05;;;;;;;27.75;12.25;;;;;;;22.62;100.00;99051.19;1712878;82;21686;-68
2021/07/14 01:57:35;;;;;;;20.57;13.32;;;;;;;22.61;100.00;99055.30;1710154;82;21032;-67
2021/07/14 02:00:08;;;;;;;20.88;11.75;;;;;;;22.58;100.00;99051.45;1665891;83;20976;-67
2021/07/14 02:02:50;;;;;;;17.57;12.55;;;;;;;22.56;100.00;99050.66;1713193;82;21013;-67
2021/07/14 02:05:11;;;;;;;20.08;12.43;;;;;;;22.55;100.00;99059.20;1714546;83;21020;-67
2021/07/14 02:07:41;;;;;;;18.42;12.90;;;;;;;22.52;100.00;99060.72;1672023;83;21442;-68
2021/07/14 02:10:10;;;;;;;17.60;12.37;;;;;;;22.51;100.00;99059.47;1715547;82;21866;-68
2021/07/14 02:12:41;;;;;;;18.60;12.65;;;;;;;22.48;100.00;99058.30;1708809;83;20882;-68
2021/07/14 02:15:12;;;;;;;14.28;12.78;;;;;;;22.45;100.00;99059.33;1712931;82;21455;-68
2021/07/14 02:17:54;;;;;;;17.57;12.90;;;;;;;22.47;100.00;99060.59;1712293;82;20885;-68
2021/07/14 02:20:24;;;;;;;21.70;15.15;;;;;;;22.47;100.00;99065.48;1707851;82;21432;-69
2021/07/14 02:22:54;;;;;;;30.02;15.75;;;;;;;22.47;100.00;99066.84;1712023;82;20901;-68
2021/07/14 02:25:23;;;;;;;31.77;16.07;;;;;;;22.47;100.00;99067.31;1714563;82;20870;-68
2021/07/14 02:27:51;;;;;;;27.87;15.93;;;;;;;22.46;100.00;99065.58;1713672;83;20907;-68
2021/07/14 02:30:21;;;;;;;30.75;17.73;;;;;;;22.45;100.00;99072.77;1712588;82;20905;-68
2021/07/14 02:32:59;;;;;;;33.18;17.75;;;;;;;22.46;100.00;99070.48;1710557;82;21517;-70
2021/07/14 02:35:29;;;;;;;35.00;15.85;;;;;;;22.47;100.00;99070.87;1695068;83;20936;-68
2021/07/14 02:38:05;;;;;;;40.40;15.18;;;;;;;22.50;100.00;99065.80;1714989;82;20953;-68
2021/07/14 02:41:02;;;;;;;24.63;14.23;;;;;;;22.49;100.00;99072.13;1715479;82;20948;-68
2021/07/14 02:43:35;;;;;;;27.27;15.30;;;;;;;22.48;100.00;99069.05;1686460;82;20949;-68
2021/07/14 02:46:13;;;;;;;32.93;15.45;;;;;;;22.48;100.00;99073.08;1710561;83;21421;-68
2021/07/14 02:48:39;;;;;;;36.98;20.20;;;;;;;22.47;100.00;99077.59;1711451;83;21004;-68
2021/07/14 02:51:08;;;;;;;43.90;20.02;;;;;;;22.49;100.00;99075.68;1715074;82;21076;-67
2021/07/14 02:53:44;;;;;;;27.13;16.07;;;;;;;22.51;100.00;99080.97;1715078;82;20906;-68
2021/07/14 02:56:16;;;;;;;16.95;12.85;;;;;;;22.50;100.00;99080.11;1712882;83;20946;-69
2021/07/14 02:58:50;;;;;;;35.83;18.00;;;;;;;22.51;100.00;99083.19;1690955;83;21186;-68
2021/07/14 03:01:23;;;;;;;24.40;15.45;;;;;;;22.53;100.00;99082.62;1708025;83;21679;-68
2021/07/14 03:03:52;;;;;;;20.62;14.85;;;;;;;22.56;100.00;99075.73;1713987;82;20957;-70
2021/07/14 03:06:20;;;;;;;21.15;14.15;;;;;;;22.59;100.00;99083.62;1707071;82;20956;-70
2021/07/14 03:08:50;;;;;;;28.73;14.50;;;;;;;22.60;100.00;99079.98;1712994;82;20885;-68
2021/07/14 03:11:21;;;;;;;24.25;15.35;;;;;;;22.64;100.00;99082.02;1713278;82;21449;-69
2021/07/14 03:13:51;;;;;;;26.85;16.62;;;;;;;22.65;100.00;99082.88;1712359;82;20910;-70
2021/07/14 03:16:19;;;;;;;34.58;18.12;;;;;;;22.71;100.00;99084.78;1712254;82;20945;-68
2021/07/14 03:18:50;;;;;;;30.20;17.07;;;;;;;22.75;100.00;99085.00;1707689;83;20951;-67
2021/07/14 03:21:18;;;;;;;24.40;14.70;;;;;;;22.79;100.00;99087.03;1708948;83;21416;-68
2021/07/14 03:23:47;;;;;;;19.55;13.98;;;;;;;22.83;100.00;99087.28;1711321;82;21384;-67
2021/07/14 03:26:16;;;;;;;15.83;12.68;;;;;;;22.88;100.00;99083.38;1711242;83;21491;-68
2021/07/14 03:28:50;;;;;;;17.15;13.50;;;;;;;22.93;100.00;99086.67;1710718;82;20908;-72
2021/07/14 03:31:20;;;;;;;19.05;15.08;;;;;;;23.00;100.00;99090.34;1711462;83;20895;-72
2021/07/14 03:33:50;;;;;;;23.22;16.97;;;;;;;23.04;100.00;99085.17;1712054;82;20901;-69
2021/07/14 03:36:23;;;;;;;26.33;17.60;;;;;;;23.08;100.00;99091.64;1691823;83;21118;-71
2021/07/14 03:38:56;;;;;;;46.23;19.60;;;;;;;23.14;100.00;99095.31;1713435;82;21513;-71
2021/07/14 03:41:29;;;;;;;60.35;20.82;;;;;;;23.22;100.00;99098.94;1653050;84;21427;-71
2021/07/14 03:44:11;;;;;;;34.15;16.25;;;;;;;23.29;100.00;99101.66;1668821;84;21000;-74
2021/07/14 03:46:40;;;;;;;34.40;15.13;;;;;;;23.35;100.00;99101.77;1656357;85;21506;-74
2021/07/14 03:49:21;;;;;;;;;;;;;;;23.41;100.00;99104.97;1686181;83;20931;-65
2021/07/14 03:51:51;;;;;;;23.38;13.65;;;;;;;23.48;100.00;99101.43;1688884;83;20474;-64
2021/07/14 03:54:25;;;;;;;29.30;14.73;;;;;;;23.54;100.00;99103.76;1703243;83;20940;-73
2021/07/14 03:56:51;;;;;;;20.05;13.70;;;;;;;23.60;100.00;99098.03;1665590;84;20960;-74
2021/07/14 03:59:21;;;;;;;35.60;14.20;;;;;;;23.65;100.00;99100.01;1641485;86;20892;-75
2021/07/14 04:01:51;;;;;;;26.87;14.05;;;;;;;23.72;100.00;99094.63;1640681;87;21079;-73
2021/07/14 04:04:21;;;;;;;23.07;13.72;;;;;;;23.77;100.00;99096.57;1673634;85;21446;-74
2021/07/14 04:06:53;;;;;;;22.00;14.38;;;;;;;23.85;100.00;99102.36;1691858;84;20958;-74
2021/07/14 04:09:22;;;;;;;;;;;;;;;23.94;100.00;99108.14;1695951;84;20954;-74
2021/07/14 04:11:58;;;;;;;18.42;15.38;;;;;;;24.00;100.00;99108.63;1688350;85;20449;-74
2021/07/14 04:14:31;;;;;;;21.73;14.15;;;;;;;24.08;100.00;99112.20;1721554;82;21451;-74
2021/07/14 04:16:59;;;;;;;23.15;14.00;;;;;;;24.15;100.00;99114.93;1717725;83;20909;-74
2021/07/14 04:19:31;;;;;;;20.48;14.58;;;;;;;24.23;100.00;99107.71;1721643;82;20913;-74
2021/07/14 04:22:06;;;;;;;25.60;15.43;;;;;;;24.30;100.00;99110.44;1721568;83;21003;-74
2021/07/14 04:24:35;;;;;;;22.90;14.10;;;;;;;24.38;100.00;99113.03;1721378;82;21523;-72
2021/07/14 04:27:05;;;;;;;23.20;15.10;;;;;;;24.46;100.00;99113.42;1721164;83;21109;-75
2021/07/14 04:29:35;;;;;;;18.05;13.85;;;;;;;24.55;100.00;99115.14;1721227;83;21476;-74
2021/07/14 04:32:05;;;;;;;17.50;13.08;;;;;;;24.63;100.00;99106.98;1733877;82;21534;-74
2021/07/14 04:34:34;;;;;;;22.35;13.55;;;;;;;24.73;100.00;99102.72;1721355;83;20960;-74
2021/07/14 04:37:04;;;;;;;14.63;13.00;;;;;;;24.84;100.00;99102.50;1718096;83;21491;-74
2021/07/14 04:39:33;;;;;;;21.55;14.63;;;;;;;24.92;100.00;99105.56;1721334;83;21090;-74
2021/07/14 04:42:02;;;;;;;23.07;13.78;;;;;;;25.01;100.00;99109.91;1717557;83;20944;-74
2021/07/14 04:44:47;;;;;;;18.95;12.80;;;;;;;25.10;100.00;99102.59;1721212;81;21423;-74
2021/07/14 04:47:05;;;;;;;18.17;12.73;;;;;;;25.20;100.00;99098.79;1720754;82;21486;-73
2021/07/14 04:49:35;;;;;;;24.87;13.03;;;;;;;25.31;100.00;99100.77;1721835;82;20881;-75
2021/07/14 04:52:05;;;;;;;25.08;12.95;;;;;;;25.40;100.00;99094.27;1721911;83;21139;-74
2021/07/14 04:54:36;;;;;;;21.82;12.68;;;;;;;25.51;100.00;99095.37;1721711;82;21404;-74
2021/07/14 04:57:07;;;;;;;16.25;12.23;;;;;;;25.59;100.00;99094.39;1721539;82;21420;-74
2021/07/14 04:59:42;;;;;;;17.15;12.82;;;;;;;25.69;100.00;99097.73;1737927;82;20897;-74
2021/07/14 05:02:11;;;;;;;17.55;11.33;;;;;;;25.79;100.00;99099.80;1721446;83;20929;-74
2021/07/14 05:04:41;;;;;;;20.65;11.97;;;;;;;25.87;100.00;99092.03;1721782;82;21979;-74
2021/07/14 05:07:13;;;;;;;27.02;12.85;;;;;;;25.98;100.00;99090.80;1718481;83;20905;-73
2021/07/14 05:09:40;;;;;;;22.95;12.65;;;;;;;26.08;100.00;99091.91;1713410;83;21442;-74
2021/07/14 05:12:13;;;;;;;18.77;12.55;;;;;;;26.17;100.00;99089.91;1715170;83;20913;-73
2021/07/14 05:14:41;;;;;;;18.85;12.15;;;;;;;26.24;100.00;99091.20;1718703;83;20944;-74
2021/07/14 05:17:09;;;;;;;18.48;12.18;;;;;;;26.35;100.00;99098.09;1718545;83;21101;-73
2021/07/14 05:19:39;;;;;;;24.15;11.20;;;;;;;26.44;100.00;99095.20;1718893;83;20929;-74
2021/07/14 05:22:11;;;;;;;13.40;10.23;;;;;;;26.52;100.00;99090.14;1718781;82;21345;-73
2021/07/14 05:24:42;;;;;;;13.88;10.45;;;;;;;26.61;100.00;99087.25;1718926;83;21437;-73
2021/07/14 05:27:09;;;;;;;20.72;11.03;;;;;;;26.69;100.00;99084.85;1718688;83;20854;-73
2021/07/14 05:29:39;;;;;;;17.30;10.23;;;;;;;26.77;100.00;99089.21;1718875;82;20890;-74
2021/07/14 05:32:13;;;;;;;12.95;9.48;;;;;;;26.87;100.00;99088.91;1718576;83;20866;-73
2021/07/14 05:34:40;;;;;;;13.22;9.73;;;;;;;26.99;100.00;99090.39;1718874;83;20942;-73
2021/07/14 05:37:09;;;;;;;17.77;9.93;;;;;;;27.09;100.00;99092.30;1718706;83;20901;-73
2021/07/14 05:39:37;;;;;;;16.42;9.40;;;;;;;27.20;100.00;99089.66;1719067;83;21471;-73
2021/07/14 05:42:06;;;;;;;17.95;10.43;;;;;;;27.32;100.00;99093.27;1718919;82;21104;-74
2021/07/14 05:44:34;;;;;;;17.95;10.20;;;;;;;27.42;100.00;99086.17;1718996;82;20873;-73
2021/07/14 05:47:05;;;;;;;20.35;11.25;;;;;;;27.52;100.00;99085.87;1718874;83;21424;-74
2021/07/14 05:49:32;;;;;;;22.17;11.40;;;;;;;27.63;100.00;99084.22;1718831;83;20885;-73
2021/07/14 05:52:02;;;;;;;17.98;10.78;;;;;;;27.71;100.00;99079.94;1718872;82;21444;-74
2021/07/14 05:54:30;;;;;;;26.17;11.68;;;;;;;27.81;100.00;99085.02;1718788;82;21092;-73
2021/07/14 05:56:58;;;;;;;21.55;11.00;;;;;;;27.90;100.00;99076.65;1719031;83;20925;-74
2021/07/14 05:59:27;;;;;;;22.75;9.88;;;;;;;27.98;100.00;99074.72;1718710;82;21566;-74
2021/07/14 06:02:00;;;;;;;16.57;8.68;;;;;;;28.06;100.00;99074.98;1718986;83;20992;-72
2021/07/14 06:04:31;;;;;;;17.40;8.63;;;;;;;28.14;100.00;99081.52;1717754;83;20889;-73
2021/07/14 06:07:01;;;;;;;15.10;8.95;;;;;;;28.26;100.00;99079.72;1716781;82;21326;-73
2021/07/14 06:09:29;;;;;;;18.60;8.40;;;;;;;28.34;100.00;99075.89;1715938;82;20889;-74
2021/07/14 06:12:01;;;;;;;14.83;7.90;;;;;;;28.43;100.00;99078.39;1716271;82;20901;-74
2021/07/14 06:14:29;;;;;;;9.75;7.30;;;;;;;28.52;100.00;99071.72;1715928;83;21056;-75
2021/07/14 06:16:57;;;;;;;8.33;6.75;;;;;;;28.63;100.00;99074.92;1715815;82;20961;-74
2021/07/14 06:19:26;;;;;;;10.40;7.37;;;;;;;28.67;100.00;99075.03;1716165;82;21036;-74
2021/07/14 06:21:55;;;;;;;10.48;7.30;;;;;;;28.72;100.00;99065.16;1715781;82;20889;-75
2021/07/14 06:24:31;;;;;;;13.80;6.72;;;;;;;28.78;100.00;99065.52;1715995;82;21397;-75
2021/07/14 06:26:59;;;;;;;8.98;7.33;;;;;;;28.82;100.00;99068.34;1715789;83;21043;-74
2021/07/14 06:29:27;;;;;;;10.85;8.20;;;;;;;28.91;100.00;99066.79;1715660;82;20894;-74
2021/07/14 06:31:55;;;;;;;17.45;7.35;;;;;;;28.94;100.00;99060.24;1715751;82;21098;-72
2021/07/14 06:34:24;;;;;;;30.05;7.85;;;;;;;28.99;100.00;99064.30;1715710;82;21400;-74
2021/07/14 06:36:52;;;;;;;13.60;7.28;;;;;;;29.11;100.00;99061.05;1715740;82;20922;-74
2021/07/14 06:39:19;;;;;;;9.58;7.03;;;;;;;29.24;100.00;99073.11;1715698;82;20886;-73
2021/07/14 06:41:47;;;;;;;12.70;6.53;;;;;;;29.35;100.00;99076.67;1715767;82;20866;-73
2021/07/14 06:44:16;;;;;;;13.08;6.33;;;;;;;29.37;100.00;99073.33;1698898;83;21761;-73
2021/07/14 06:46:44;;;;;;;5.47;4.97;;;;;;;29.34;100.00;99076.31;1715578;82;21419;-74
2021/07/14 06:49:13;;;;;;;8.40;4.97;;;;;;;29.36;100.00;99077.54;1715658;82;20923;-74
2021/07/14 06:51:40;;;;;;;31.33;6.83;;;;;;;29.41;100.00;99076.66;1715608;82;20955;-73
2021/07/14 06:54:09;;;;;;;6.85;5.30;;;;;;;29.45;100.00;99079.51;1715747;82;20940;-74
2021/07/14 06:56:38;;;;;;;34.45;7.62;;;;;;;29.46;100.00;99074.44;1715963;83;21787;-73
2021/07/14 06:59:06;;;;;;;12.10;5.28;;;;;;;29.49;100.00;99081.47;1715552;83;21504;-74
2021/07/14 07:01:34;;;;;;;11.22;5.10;;;;;;;29.55;100.00;99077.73;1715858;82;21013;-73
2021/07/14 07:04:02;;;;;;;11.53;5.80;;;;;;;29.63;100.00;99081.16;1715688;82;20899;-75
2021/07/14 07:06:29;;;;;;;6.42;5.20;;;;;;;29.67;100.00;99083.48;1713595;82;20938;-73
2021/07/14 07:08:57;;;;;;;6.22;5.05;;;;;;;29.67;100.00;99078.03;1703283;83;21162;-73
2021/07/14 07:11:28;;;;;;;11.05;5.10;;;;;;;29.69;100.00;99080.13;1718982;83;21419;-71
2021/07/14 07:13:56;;;;;;;6.25;5.20;;;;;;;29.69;100.00;99074.69;1719027;83;20891;-74
2021/07/14 07:16:26;;;;;;;6.53;4.83;;;;;;;29.74;100.00;99070.22;1718741;83;20915;-73
2021/07/14 07:18:55;;;;;;;10.05;4.55;;;;;;;29.84;100.00;99070.31;1719243;82;20844;-71
2021/07/14 07:21:23;;;;;;;10.58;4.83;;;;;;;29.92;100.00;99063.21;1718987;83;21744;-72
2021/07/14 07:23:53;;;;;;;19.80;4.75;;;;;;;30.01;100.00;99063.77;1719209;83;20876;-73
2021/07/14 07:26:22;;;;;;;4.83;4.30;;;;;;;30.09;100.00;99067.20;1725097;83;21465;-72
2021/07/14 07:28:57;;;;;;;46.37;8.33;;;;;;;30.24;100.00;99066.35;1719545;83;20892;-72
2021/07/14 07:31:20;;;;;;;6.85;4.40;;;;;;;30.31;100.00;99067.06;1719189;82;20903;-73
2021/07/14 07:33:49;;;;;;;4.67;4.20;;;;;;;30.40;100.00;99061.30;1719163;83;21067;-73
2021/07/14 07:36:17;;;;;;;11.35;4.47;;;;;;;30.52;100.00;99067.50;1719162;83;20923;-73
2021/07/14 07:38:44;;;;;;;6.22;4.70;;;;;;;30.59;100.00;99065.95;1719256;83;20864;-73
2021/07/14 07:41:13;;;;;;;7.53;4.62;;;;;;;30.63;100.00;99066.94;1709735;83;20944;-72
2021/07/14 07:43:41;;;;;;;5.40;4.33;;;;;;;30.68;100.00;99067.88;1712322;83;21006;-74
2021/07/14 07:46:09;;;;;;;29.82;6.25;;;;;;;30.72;100.00;99071.19;1718943;83;21134;-73
2021/07/14 07:48:37;;;;;;;7.10;4.28;;;;;;;30.76;100.00;99069.44;1719061;83;21422;-73
2021/07/14 07:51:08;;;;;;;5.35;4.58;;;;;;;30.75;100.00;99068.22;1710404;82;20960;-73
2021/07/14 07:53:37;;;;;;;6.58;4.75;;;;;;;30.72;100.00;99069.33;1711506;83;20860;-71
2021/07/14 07:56:05;;;;;;;8.08;5.08;;;;;;;30.70;100.00;99068.60;1719061;83;20935;-73
2021/07/14 07:58:33;;;;;;;6.67;4.83;;;;;;;30.70;100.00;99068.10;1718799;83;20920;-72
2021/07/14 08:01:01;;;;;;;7.58;4.28;;;;;;;30.73;100.00;99071.05;1718662;83;21434;-72
2021/07/14 08:03:28;;;;;;;7.25;4.25;;;;;;;30.76;100.00;99067.22;1718753;83;20884;-74
2021/07/14 08:05:57;;;;;;;5.92;4.30;;;;;;;30.81;100.00;99071.25;1718630;83;20919;-71
2021/07/14 08:08:25;;;;;;;8.05;4.67;;;;;;;30.89;100.00;99070.55;1715766;82;20912;-71
2021/07/14 08:10:56;;;;;;;5.25;4.20;;;;;;;30.94;100.00;99070.48;1715718;82;20884;-72
2021/07/14 08:13:24;;;;;;;10.10;4.55;;;;;;;31.01;100.00;99070.28;1715785;82;20880;-71
2021/07/14 08:15:57;;;;;;;9.18;4.80;;;;;;;31.08;100.00;99080.12;1715756;82;20931;-71
2021/07/14 08:18:28;;;;;;;9.50;4.03;;;;;;;31.12;99.87;99069.30;1715752;82;20856;-71
2021/07/14 08:20:58;;;;;;;12.28;4.33;;;;;;;31.19;97.66;99065.53;1715804;82;20883;-71
2021/07/14 08:23:27;;;;;;;4.17;3.77;;;;;;;31.28;94.29;99068.30;1715686;82;21062;-70
2021/07/14 08:25:55;;;;;;;49.10;8.23;;;;;;;31.39;94.80;99070.53;1715640;82;20856;-70
2021/07/14 08:28:23;;;;;;;5.47;4.30;;;;;;;31.53;96.32;99064.14;1715994;82;21482;-71
2021/07/14 08:30:52;;;;;;;7.20;4.28;;;;;;;31.67;100.00;99068.80;1715632;82;20911;-69
2021/07/14 08:33:20;;;;;;;8.63;4.42;;;;;;;31.74;97.24;99065.41;1715847;82;21455;-69
2021/07/14 08:35:50;;;;;;;4.50;4.10;;;;;;;31.78;95.06;99061.88;1715703;83;21804;-68
2021/07/14 08:38:18;;;;;;;5.53;4.05;;;;;;;31.83;91.93;99061.80;1715899;82;21410;-69
2021/07/14 08:40:50;;;;;;;8.73;4.00;;;;;;;31.94;93.34;99063.50;1715672;82;21454;-69
2021/07/14 08:43:19;;;;;;;5.67;3.92;;;;;;;32.07;92.52;99057.73;1715951;82;20907;-70
2021/07/14 08:45:51;;;;;;;4.30;3.90;;;;;;;32.21;92.06;99061.38;1711605;82;20862;-66
2021/07/14 08:48:18;;;;;;;7.42;4.05;;;;;;;32.36;91.90;99063.16;1703309;83;21083;-69
2021/07/14 08:50:48;;;;;;;24.60;5.87;;;;;;;32.47;90.66;99057.00;1715511;82;21448;-68
2021/07/14 08:53:18;;;;;;;9.83;4.60;;;;;;;32.52;84.56;99056.03;1715801;82;20927;-68
2021/07/14 08:55:46;;;;;;;15.40;4.70;;;;;;;32.56;81.55;99054.72;1715461;83;20947;-69
2021/07/14 08:58:16;;;;;;;10.18;4.45;;;;;;;32.62;81.14;99051.89;1715834;82;21555;-68
2021/07/14 09:00:44;;;;;;;4.30;3.90;;;;;;;32.66;78.57;99056.07;1715526;82;21126;-69
2021/07/14 09:03:13;;;;;;;4.50;4.00;;;;;;;32.66;77.61;99049.75;1715402;83;20956;-68
2021/07/14 09:05:40;;;;;;;7.50;4.53;;;;;;;32.68;75.59;99047.22;1715530;82;20896;-69
2021/07/14 09:08:08;;;;;;;5.60;3.92;;;;;;;32.76;79.24;99046.45;1717876;82;20895;-68
2021/07/14 09:10:37;;;;;;;117.90;15.20;;;;;;;32.89;77.73;99042.03;1718702;83;20911;-69
2021/07/14 09:13:06;;;;;;;10.90;4.40;;;;;;;32.88;73.66;99045.27;1718736;83;21089;-69
2021/07/14 09:15:44;;;;;;;8.35;3.85;;;;;;;32.86;71.06;99040.46;1718686;82;20891;-69
2021/07/14 09:18:15;;;;;;;5.50;4.17;;;;;;;32.96;75.36;99046.72;1718532;83;21422;-68
2021/07/14 09:20:46;;;;;;;5.87;4.45;;;;;;;33.07;75.85;99040.17;1718765;83;21386;-69
2021/07/14 09:23:17;;;;;;;6.47;3.98;;;;;;;33.14;72.24;99038.57;1718779;83;20915;-68
2021/07/14 09:25:51;;;;;;;;;;;;;;;33.22;72.22;99037.80;1721443;82;21374;-67
2021/07/14 09:28:20;;;;;;;7.75;4.15;;;;;;;33.31;76.54;99032.28;1718823;83;20449;-68
2021/07/14 09:30:59;;;;;;;5.60;4.22;;;;;;;33.47;77.42;99043.36;1719052;82;21488;-68
2021/07/14 09:33:28;;;;;;;7.33;4.22;;;;;;;33.52;71.80;99042.03;1718728;82;20939;-73
2021/07/14 09:36:00;;;;;;;8.60;4.42;;;;;;;33.49;71.05;99041.84;1719049;82;20943;-67
2021/07/14 09:38:31;;;;;;;7.97;4.35;;;;;;;33.51;68.92;99041.17;1718821;82;21938;-68
2021/07/14 09:41:04;;;;;;;5.92;3.98;;;;;;;33.51;66.64;99042.54;1719266;83;20930;-69
2021/07/14 09:43:45;;;;;;;8.40;4.47;;;;;;;33.49;67.52;99044.06;1718594;82;20885;-69
2021/07/14 09:46:16;;;;;;;8.78;3.87;;;;;;;33.57;64.95;99044.64;1718637;82;20909;-68
2021/07/14 09:48:47;;;;;;;11.30;4.45;;;;;;;33.68;66.89;99042.20;1718425;83;20889;-68
2021/07/14 09:51:19;;;;;;;5.65;3.72;;;;;;;33.84;65.92;99031.92;1718645;83;21081;-69
2021/07/14 09:53:48;;;;;;;10.18;4.03;;;;;;;33.93;66.76;99032.32;1718352;83;20897;-68
2021/07/14 09:56:23;;;;;;;13.32;3.65;;;;;;;33.99;61.43;99034.41;1718896;83;20925;-69
2021/07/14 09:59:08;;;;;;;6.37;3.60;;;;;;;33.97;57.86;99033.72;1718374;83;21069;-71
2021/07/14 10:01:46;;;;;;;12.90;3.98;;;;;;;33.91;56.13;99039.33;1718754;83;20937;-69
2021/07/14 10:04:24;;;;;;;10.55;3.58;;;;;;;33.91;56.01;99031.11;1718380;83;21515;-69
2021/07/14 10:07:05;;;;;;;92.08;11.25;;;;;;;33.97;58.79;99033.72;1718248;83;21520;-69
2021/07/14 10:09:34;;;;;;;11.53;4.80;;;;;;;34.07;58.67;99033.98;1718664;82;21487;-68
2021/07/14 10:12:30;;;;;;;5.42;4.03;;;;;;;34.14;57.13;99031.47;1718404;83;20906;-68
2021/07/14 10:15:15;;;;;;;9.28;3.83;;;;;;;34.14;56.05;99024.62;1713631;83;20960;-69
2021/07/14 10:17:50;;;;;;;6.75;4.03;;;;;;;34.22;57.87;99026.55;1684228;83;21496;-71
2021/07/14 10:20:35;;;;;;;7.03;3.80;;;;;;;34.21;55.81;99031.16;1718660;83;20928;-68
2021/07/14 10:23:12;;;;;;;5.97;3.72;;;;;;;34.11;53.73;99031.78;1715757;83;20925;-67
2021/07/14 10:25:42;;;;;;;6.75;3.70;;;;;;;34.08;52.38;99028.00;1718772;83;20945;-68
2021/07/14 10:28:12;;;;;;;9.95;4.22;;;;;;;34.08;53.04;99026.64;1718715;83;20952;-68
2021/07/14 10:30:41;;;;;;;7.97;4.40;;;;;;;34.14;54.70;99031.97;1718915;83;21077;-69
2021/07/14 10:33:10;;;;;;;14.95;4.10;;;;;;;34.16;53.85;99028.56;1718629;82;20897;-66
2021/07/14 10:35:43;;;;;;;5.42;3.65;;;;;;;34.16;51.68;99024.45;1718614;82;20952;-68
2021/07/14 10:38:21;;;;;;;7.03;3.80;;;;;;;34.16;50.86;99023.09;1715760;83;20916;-67
2021/07/14 10:40:51;;;;;;;11.12;4.50;;;;;;;34.17;51.88;99027.03;1714884;83;20952;-68
2021/07/14 10:43:23;;;;;;;17.67;5.08;;;;;;;34.15;51.39;99032.32;1718458;82;21159;-68
2021/07/14 10:45:51;;;;;;;;;;;;;;;34.08;52.47;99026.13;1721138;83;20936;-67
2021/07/14 10:48:21;;;;;;;7.42;4.00;;;;;;;34.05;52.82;99025.56;1718343;83;20138;-67
2021/07/14 10:50:52;;;;;;;6.97;3.87;;;;;;;34.00;54.20;99015.61;1721596;83;21412;-67
2021/07/14 10:53:20;;;;;;;8.03;4.00;;;;;;;33.92;55.20;99015.55;1718168;83;20968;-66
2021/07/14 10:55:49;;;;;;;8.58;4.35;;;;;;;33.88;54.95;99018.27;1718606;83;21102;-67
2021/07/14 10:58:19;;;;;;;14.70;3.95;;;;;;;33.86;52.38;99020.30;1718304;83;20944;-69
2021/07/14 11:00:46;;;;;;;8.05;3.42;;;;;;;33.91;51.73;99016.58;1718814;83;20921;-68
2021/07/14 11:03:44;;;;;;;10.93;4.00;;;;;;;34.05;53.08;99022.82;1718302;83;20908;-69
2021/07/14 11:06:13;;;;;;;6.65;3.75;;;;;;;34.19;59.23;99020.88;1717603;83;21507;-67
2021/07/14 11:08:49;;;;;;;4.47;3.58;;;;;;;34.27;61.01;99022.80;1716056;82;21961;-68
2021/07/14 11:11:22;;;;;;;7.62;4.00;;;;;;;34.35;58.25;99020.14;1715122;82;20920;-67
2021/07/14 11:14:05;;;;;;;7.17;4.00;;;;;;;34.46;55.56;99019.84;1715261;83;20917;-67
2021/07/14 11:16:39;;;;;;;8.18;3.83;;;;;;;34.53;53.67;99014.09;1715247;83;21400;-68
2021/07/14 11:19:14;;;;;;;12.07;4.75;;;;;;;34.64;56.57;99026.63;1715322;82;20908;-70
2021/07/14 11:22:03;;;;;;;11.30;4.00;;;;;;;34.71;54.72;99023.06;1715374;82;21768;-66
2021/07/14 11:24:56;;;;;;;6.97;3.98;;;;;;;34.81;53.53;99020.69;1714375;83;21035;-69
2021/07/14 11:27:31;;;;;;;4.60;3.40;;;;;;;34.90;51.84;99019.20;1711553;82;20948;-68
2021/07/14 11:30:09;;;;;;;7.12;3.12;;;;;;;34.92;49.06;99017.16;1715024;82;21864;-68
2021/07/14 11:32:46;;;;;;;43.40;6.83;;;;;;;34.92;46.19;99014.42;1711878;82;21431;-68
2021/07/14 11:35:36;;;;;;;6.53;3.17;;;;;;;34.99;44.35;99010.49;1715512;82;21082;-69
2021/07/14 11:38:06;;;;;;;10.83;3.27;;;;;;;35.09;44.52;99013.11;1712032;83;20969;-67
2021/07/14 11:40:39;;;;;;;7.35;3.15;;;;;;;35.14;45.34;99016.20;1701709;83;21012;-68
2021/07/14 11:43:15;;;;;;;4.15;2.87;;;;;;;35.00;44.88;99013.09;1715264;82;20929;-70
2021/07/14 11:45:51;;;;;;;4.50;2.80;;;;;;;34.85;43.02;99017.99;1713199;82;21008;-67